sensor_id;sensor_type;location;lat;lon;timestamp;P1;durP1;ratioP1;P2;durP2;ratioP2
39346;SDS011;26262;49.836;6.632;2022-10-12T00:01:15;6.47;;;3.47;;
39346;SDS011;26262;49.836;6.632;2022-10-12T00:03:40;7.22;;;3.40;;
39346;SDS011;26262;49.836;6.632;2022-10-12T00:06:11;6.80;;;3.70;;
39346;SDS011;26262;49.836;6.632;2022-10-12T00:08:39;7.55;;;3.75;;
39346;SDS011;26262;49.836;6.632;2022-10-12T00:11:05;8.48;;;3.45;;
39346;SDS011;26262;49.836;6.632;2022-10-12T00:13:32;8.80;;;3.27;;
39346;SDS011;26262;49.836;6.632;2022-10-12T00:16:04;6.80;;;3.38;;
39346;SDS011;26262;49.836;6.632;2022-10-12T00:18:32;6.57;;;2.60;;
39346;SDS011;26262;49.836;6.632;2022-10-12T00:21:19;9.60;;;3.55;;
39346;SDS011;26262;49.836;6.632;2022-10-12T00:23:44;4.88;;;2.70;;
39346;SDS011;26262;49.836;6.632;2022-10-12T00:26:14;7.25;;;2.83;;
39346;SDS011;26262;49.836;6.632;2022-10-12T00:28:46;6.60;;;3.45;;
39346;SDS011;26262;49.836;6.632;2022-10-12T00:31:15;8.55;;;2.97;;
39346;SDS011;26262;49.836;6.632;2022-10-12T00:33:41;7.30;;;2.75;;
39346;SDS011;26262;49.836;6.632;2022-10-12T00:36:15;5.32;;;3.45;;
39346;SDS011;26262;49.836;6.632;2022-10-12T00:38:43;4.88;;;3.00;;
39346;SDS011;26262;49.836;6.632;2022-10-12T00:41:09;5.80;;;2.90;;
39346;SDS011;26262;49.836;6.632;2022-10-12T00:43:37;5.88;;;2.95;;
39346;SDS011;26262;49.836;6.632;2022-10-12T00:49:09;7.25;;;4.07;;
39346;SDS011;26262;49.836;6.632;2022-10-12T00:51:45;6.93;;;3.35;;
39346;SDS011;26262;49.836;6.632;2022-10-12T00:54:16;6.60;;;3.47;;
39346;SDS011;26262;49.836;6.632;2022-10-12T00:56:45;8.13;;;3.95;;
39346;SDS011;26262;49.836;6.632;2022-10-12T00:59:15;10.32;;;5.25;;
39346;SDS011;26262;49.836;6.632;2022-10-12T01:01:44;6.78;;;3.50;;
39346;SDS011;26262;49.836;6.632;2022-10-12T01:04:10;7.63;;;3.65;;
39346;SDS011;26262;49.836;6.632;2022-10-12T01:06:36;6.72;;;3.30;;
39346;SDS011;26262;49.836;6.632;2022-10-12T01:09:02;7.38;;;3.20;;
39346;SDS011;26262;49.836;6.632;2022-10-12T01:11:28;5.70;;;3.10;;
39346;SDS011;26262;49.836;6.632;2022-10-12T01:13:53;7.70;;;3.10;;
39346;SDS011;26262;49.836;6.632;2022-10-12T01:16:40;7.25;;;2.90;;
39346;SDS011;26262;49.836;6.632;2022-10-12T01:19:37;24.45;;;3.17;;
39346;SDS011;26262;49.836;6.632;2022-10-12T01:22:24;9.55;;;2.75;;
39346;SDS011;26262;49.836;6.632;2022-10-12T01:27:32;6.72;;;2.85;;
39346;SDS011;26262;49.836;6.632;2022-10-12T01:35:40;9.20;;;3.42;;
39346;SDS011;26262;49.836;6.632;2022-10-12T01:43:42;5.82;;;3.10;;
39346;SDS011;26262;49.836;6.632;2022-10-12T01:48:40;5.65;;;2.60;;
39346;SDS011;26262;49.836;6.632;2022-10-12T01:51:08;6.93;;;3.28;;
39346;SDS011;26262;49.836;6.632;2022-10-12T02:06:36;4.88;;;3.05;;
39346;SDS011;26262;49.836;6.632;2022-10-12T02:09:13;5.82;;;3.03;;
39346;SDS011;26262;49.836;6.632;2022-10-12T02:11:48;7.60;;;3.70;;
39346;SDS011;26262;49.836;6.632;2022-10-12T02:14:20;7.05;;;3.00;;
39346;SDS011;26262;49.836;6.632;2022-10-12T02:16:50;7.40;;;3.30;;
39346;SDS011;26262;49.836;6.632;2022-10-12T02:19:20;8.30;;;3.30;;
39346;SDS011;26262;49.836;6.632;2022-10-12T02:21:49;5.32;;;3.13;;
39346;SDS011;26262;49.836;6.632;2022-10-12T02:24:17;5.72;;;2.97;;
39346;SDS011;26262;49.836;6.632;2022-10-12T02:29:13;7.10;;;3.38;;
39346;SDS011;26262;49.836;6.632;2022-10-12T02:31:55;8.20;;;3.28;;
39346;SDS011;26262;49.836;6.632;2022-10-12T02:34:33;6.47;;;3.08;;
39346;SDS011;26262;49.836;6.632;2022-10-12T02:37:45;6.57;;;2.53;;
39346;SDS011;26262;49.836;6.632;2022-10-12T02:40:16;4.90;;;2.80;;
39346;SDS011;26262;49.836;6.632;2022-10-12T02:42:53;5.88;;;2.80;;
39346;SDS011;26262;49.836;6.632;2022-10-12T02:45:23;11.40;;;3.38;;
39346;SDS011;26262;49.836;6.632;2022-10-12T02:47:50;4.47;;;2.60;;
39346;SDS011;26262;49.836;6.632;2022-10-12T02:50:18;6.78;;;3.25;;
39346;SDS011;26262;49.836;6.632;2022-10-12T02:52:46;6.63;;;3.10;;
39346;SDS011;26262;49.836;6.632;2022-10-12T02:55:13;6.57;;;3.45;;
39346;SDS011;26262;49.836;6.632;2022-10-12T02:57:39;7.18;;;2.88;;
39346;SDS011;26262;49.836;6.632;2022-10-12T03:00:05;5.60;;;3.05;;
39346;SDS011;26262;49.836;6.632;2022-10-12T03:02:31;4.95;;;3.30;;
39346;SDS011;26262;49.836;6.632;2022-10-12T03:04:57;6.43;;;3.17;;
39346;SDS011;26262;49.836;6.632;2022-10-12T03:07:22;5.97;;;2.45;;
39346;SDS011;26262;49.836;6.632;2022-10-12T03:09:48;7.72;;;2.80;;
39346;SDS011;26262;49.836;6.632;2022-10-12T03:12:13;6.53;;;2.63;;
39346;SDS011;26262;49.836;6.632;2022-10-12T03:14:39;8.68;;;2.60;;
39346;SDS011;26262;49.836;6.632;2022-10-12T03:17:05;4.20;;;2.47;;
39346;SDS011;26262;49.836;6.632;2022-10-12T03:19:30;4.68;;;2.90;;
39346;SDS011;26262;49.836;6.632;2022-10-12T03:21:56;5.85;;;3.22;;
39346;SDS011;26262;49.836;6.632;2022-10-12T03:24:21;6.60;;;3.47;;
39346;SDS011;26262;49.836;6.632;2022-10-12T03:26:47;10.60;;;3.47;;
39346;SDS011;26262;49.836;6.632;2022-10-12T03:29:12;7.63;;;2.95;;
39346;SDS011;26262;49.836;6.632;2022-10-12T03:31:38;5.88;;;2.95;;
39346;SDS011;26262;49.836;6.632;2022-10-12T03:34:03;8.43;;;2.90;;
39346;SDS011;26262;49.836;6.632;2022-10-12T03:36:29;6.72;;;4.82;;
39346;SDS011;26262;49.836;6.632;2022-10-12T03:38:55;8.02;;;3.00;;
39346;SDS011;26262;49.836;6.632;2022-10-12T03:41:20;6.35;;;3.08;;
39346;SDS011;26262;49.836;6.632;2022-10-12T03:43:46;7.50;;;3.95;;
39346;SDS011;26262;49.836;6.632;2022-10-12T03:46:11;6.88;;;3.17;;
39346;SDS011;26262;49.836;6.632;2022-10-12T03:48:38;6.38;;;3.50;;
39346;SDS011;26262;49.836;6.632;2022-10-12T03:51:03;7.30;;;3.28;;
39346;SDS011;26262;49.836;6.632;2022-10-12T03:53:29;5.20;;;3.03;;
39346;SDS011;26262;49.836;6.632;2022-10-12T03:55:55;5.45;;;3.00;;
39346;SDS011;26262;49.836;6.632;2022-10-12T03:58:21;5.45;;;3.00;;
39346;SDS011;26262;49.836;6.632;2022-10-12T04:00:51;7.10;;;3.45;;
39346;SDS011;26262;49.836;6.632;2022-10-12T04:03:17;5.40;;;3.00;;
39346;SDS011;26262;49.836;6.632;2022-10-12T04:05:43;7.07;;;2.85;;
39346;SDS011;26262;49.836;6.632;2022-10-12T04:08:08;5.70;;;3.50;;
39346;SDS011;26262;49.836;6.632;2022-10-12T04:10:34;4.30;;;2.60;;
39346;SDS011;26262;49.836;6.632;2022-10-12T04:12:59;5.60;;;3.28;;
39346;SDS011;26262;49.836;6.632;2022-10-12T04:15:25;5.85;;;3.40;;
39346;SDS011;26262;49.836;6.632;2022-10-12T04:17:50;5.25;;;2.83;;
39346;SDS011;26262;49.836;6.632;2022-10-12T04:20:16;6.80;;;3.83;;
39346;SDS011;26262;49.836;6.632;2022-10-12T04:22:42;8.95;;;3.53;;
39346;SDS011;26262;49.836;6.632;2022-10-12T04:25:08;6.70;;;3.03;;
39346;SDS011;26262;49.836;6.632;2022-10-12T04:27:35;7.20;;;3.67;;
39346;SDS011;26262;49.836;6.632;2022-10-12T04:30:00;10.00;;;3.55;;
39346;SDS011;26262;49.836;6.632;2022-10-12T04:32:26;7.53;;;3.75;;
39346;SDS011;26262;49.836;6.632;2022-10-12T04:34:51;6.07;;;3.10;;
39346;SDS011;26262;49.836;6.632;2022-10-12T04:37:17;4.82;;;2.88;;
39346;SDS011;26262;49.836;6.632;2022-10-12T04:39:42;6.28;;;3.33;;
39346;SDS011;26262;49.836;6.632;2022-10-12T04:42:08;7.10;;;3.30;;
39346;SDS011;26262;49.836;6.632;2022-10-12T04:44:33;7.00;;;3.30;;
39346;SDS011;26262;49.836;6.632;2022-10-12T04:46:59;8.25;;;4.07;;
39346;SDS011;26262;49.836;6.632;2022-10-12T04:49:25;8.05;;;3.60;;
39346;SDS011;26262;49.836;6.632;2022-10-12T04:51:51;5.28;;;3.17;;
39346;SDS011;26262;49.836;6.632;2022-10-12T04:54:16;5.30;;;2.90;;
39346;SDS011;26262;49.836;6.632;2022-10-12T04:56:42;4.55;;;3.15;;
39346;SDS011;26262;49.836;6.632;2022-10-12T04:59:07;6.85;;;3.05;;
39346;SDS011;26262;49.836;6.632;2022-10-12T05:01:33;6.07;;;2.70;;
39346;SDS011;26262;49.836;6.632;2022-10-12T05:03:58;5.97;;;2.95;;
39346;SDS011;26262;49.836;6.632;2022-10-12T05:06:24;7.70;;;3.35;;
39346;SDS011;26262;49.836;6.632;2022-10-12T05:08:50;9.43;;;4.38;;
39346;SDS011;26262;49.836;6.632;2022-10-12T05:11:15;10.48;;;3.85;;
39346;SDS011;26262;49.836;6.632;2022-10-12T05:13:41;8.45;;;3.75;;
39346;SDS011;26262;49.836;6.632;2022-10-12T05:16:06;6.80;;;3.40;;
39346;SDS011;26262;49.836;6.632;2022-10-12T05:18:32;11.85;;;4.00;;
39346;SDS011;26262;49.836;6.632;2022-10-12T05:20:57;18.42;;;4.38;;
39346;SDS011;26262;49.836;6.632;2022-10-12T05:23:23;20.23;;;4.72;;
39346;SDS011;26262;49.836;6.632;2022-10-12T05:25:48;8.00;;;3.47;;
39346;SDS011;26262;49.836;6.632;2022-10-12T05:28:14;13.10;;;4.13;;
39346;SDS011;26262;49.836;6.632;2022-10-12T05:30:39;9.85;;;3.97;;
39346;SDS011;26262;49.836;6.632;2022-10-12T05:33:05;9.88;;;3.65;;
39346;SDS011;26262;49.836;6.632;2022-10-12T05:35:30;6.47;;;3.38;;
39346;SDS011;26262;49.836;6.632;2022-10-12T05:37:56;5.95;;;3.97;;
39346;SDS011;26262;49.836;6.632;2022-10-12T05:40:22;5.22;;;3.10;;
39346;SDS011;26262;49.836;6.632;2022-10-12T05:42:47;6.38;;;3.30;;
39346;SDS011;26262;49.836;6.632;2022-10-12T05:45:13;5.38;;;3.03;;
39346;SDS011;26262;49.836;6.632;2022-10-12T05:47:39;6.07;;;2.90;;
39346;SDS011;26262;49.836;6.632;2022-10-12T05:50:05;11.68;;;3.53;;
39346;SDS011;26262;49.836;6.632;2022-10-12T05:52:31;6.38;;;3.10;;
39346;SDS011;26262;49.836;6.632;2022-10-12T05:54:57;5.55;;;2.97;;
39346;SDS011;26262;49.836;6.632;2022-10-12T05:57:22;5.00;;;2.97;;
39346;SDS011;26262;49.836;6.632;2022-10-12T05:59:48;5.35;;;3.08;;
39346;SDS011;26262;49.836;6.632;2022-10-12T06:02:14;6.28;;;2.97;;
39346;SDS011;26262;49.836;6.632;2022-10-12T06:04:41;7.03;;;2.80;;
39346;SDS011;26262;49.836;6.632;2022-10-12T06:07:07;8.30;;;2.67;;
39346;SDS011;26262;49.836;6.632;2022-10-12T06:09:34;8.52;;;3.45;;
39346;SDS011;26262;49.836;6.632;2022-10-12T06:12:02;6.28;;;2.70;;
39346;SDS011;26262;49.836;6.632;2022-10-12T06:14:29;5.30;;;3.05;;
39346;SDS011;26262;49.836;6.632;2022-10-12T06:16:54;6.47;;;3.17;;
39346;SDS011;26262;49.836;6.632;2022-10-12T06:19:20;5.80;;;2.63;;
39346;SDS011;26262;49.836;6.632;2022-10-12T06:21:45;4.53;;;2.55;;
39346;SDS011;26262;49.836;6.632;2022-10-12T06:24:11;8.55;;;4.28;;
39346;SDS011;26262;49.836;6.632;2022-10-12T06:26:36;5.50;;;2.70;;
39346;SDS011;26262;49.836;6.632;2022-10-12T06:29:02;5.40;;;2.90;;
39346;SDS011;26262;49.836;6.632;2022-10-12T06:31:27;6.95;;;2.90;;
39346;SDS011;26262;49.836;6.632;2022-10-12T06:33:53;6.13;;;3.28;;
39346;SDS011;26262;49.836;6.632;2022-10-12T06:36:19;6.57;;;3.58;;
39346;SDS011;26262;49.836;6.632;2022-10-12T06:38:44;12.98;;;4.43;;
39346;SDS011;26262;49.836;6.632;2022-10-12T06:41:10;5.43;;;3.85;;
39346;SDS011;26262;49.836;6.632;2022-10-12T06:43:36;8.70;;;4.78;;
39346;SDS011;26262;49.836;6.632;2022-10-12T06:46:01;5.63;;;3.70;;
39346;SDS011;26262;49.836;6.632;2022-10-12T06:48:27;5.45;;;3.70;;
39346;SDS011;26262;49.836;6.632;2022-10-12T06:50:53;8.07;;;3.70;;
39346;SDS011;26262;49.836;6.632;2022-10-12T06:53:19;7.55;;;3.80;;
39346;SDS011;26262;49.836;6.632;2022-10-12T06:55:44;7.13;;;3.90;;
39346;SDS011;26262;49.836;6.632;2022-10-12T06:58:10;9.20;;;4.93;;
39346;SDS011;26262;49.836;6.632;2022-10-12T07:00:35;5.88;;;4.15;;
39346;SDS011;26262;49.836;6.632;2022-10-12T07:03:01;5.90;;;4.00;;
39346;SDS011;26262;49.836;6.632;2022-10-12T07:05:27;5.63;;;4.03;;
39346;SDS011;26262;49.836;6.632;2022-10-12T07:07:53;7.20;;;4.10;;
39346;SDS011;26262;49.836;6.632;2022-10-12T07:10:19;6.05;;;3.60;;
39346;SDS011;26262;49.836;6.632;2022-10-12T07:12:44;5.13;;;3.83;;
39346;SDS011;26262;49.836;6.632;2022-10-12T07:15:10;5.30;;;3.65;;
39346;SDS011;26262;49.836;6.632;2022-10-12T07:17:36;7.35;;;3.45;;
39346;SDS011;26262;49.836;6.632;2022-10-12T07:20:01;6.43;;;3.22;;
39346;SDS011;26262;49.836;6.632;2022-10-12T07:22:27;7.28;;;3.28;;
39346;SDS011;26262;49.836;6.632;2022-10-12T07:24:53;3.92;;;2.53;;
39346;SDS011;26262;49.836;6.632;2022-10-12T07:27:18;4.93;;;2.88;;
39346;SDS011;26262;49.836;6.632;2022-10-12T07:29:44;4.70;;;2.90;;
39346;SDS011;26262;49.836;6.632;2022-10-12T07:32:09;4.40;;;3.15;;
39346;SDS011;26262;49.836;6.632;2022-10-12T07:34:35;4.90;;;2.90;;
39346;SDS011;26262;49.836;6.632;2022-10-12T07:37:00;5.30;;;2.88;;
39346;SDS011;26262;49.836;6.632;2022-10-12T07:39:26;5.82;;;3.83;;
39346;SDS011;26262;49.836;6.632;2022-10-12T07:41:52;4.85;;;3.50;;
39346;SDS011;26262;49.836;6.632;2022-10-12T07:44:19;5.55;;;3.10;;
39346;SDS011;26262;49.836;6.632;2022-10-12T07:46:45;6.18;;;3.47;;
39346;SDS011;26262;49.836;6.632;2022-10-12T07:49:11;12.07;;;3.58;;
39346;SDS011;26262;49.836;6.632;2022-10-12T07:51:37;4.05;;;2.63;;
39346;SDS011;26262;49.836;6.632;2022-10-12T07:54:03;3.60;;;2.45;;
39346;SDS011;26262;49.836;6.632;2022-10-12T07:56:29;4.38;;;2.88;;
39346;SDS011;26262;49.836;6.632;2022-10-12T07:58:55;4.30;;;2.80;;
39346;SDS011;26262;49.836;6.632;2022-10-12T08:01:22;7.20;;;3.08;;
39346;SDS011;26262;49.836;6.632;2022-10-12T08:03:50;4.72;;;2.88;;
39346;SDS011;26262;49.836;6.632;2022-10-12T08:06:17;4.28;;;3.08;;
39346;SDS011;26262;49.836;6.632;2022-10-12T08:08:45;6.75;;;3.08;;
39346;SDS011;26262;49.836;6.632;2022-10-12T08:11:13;6.88;;;3.72;;
39346;SDS011;26262;49.836;6.632;2022-10-12T08:13:39;6.10;;;3.63;;
39346;SDS011;26262;49.836;6.632;2022-10-12T08:16:06;5.18;;;3.55;;
39346;SDS011;26262;49.836;6.632;2022-10-12T08:18:34;6.00;;;3.25;;
39346;SDS011;26262;49.836;6.632;2022-10-12T08:21:02;6.35;;;3.58;;
39346;SDS011;26262;49.836;6.632;2022-10-12T08:23:29;7.20;;;4.13;;
39346;SDS011;26262;49.836;6.632;2022-10-12T08:25:55;8.40;;;3.38;;
39346;SDS011;26262;49.836;6.632;2022-10-12T08:28:21;8.52;;;3.65;;
39346;SDS011;26262;49.836;6.632;2022-10-12T08:30:48;7.00;;;3.40;;
39346;SDS011;26262;49.836;6.632;2022-10-12T08:33:14;5.30;;;3.05;;
39346;SDS011;26262;49.836;6.632;2022-10-12T08:35:40;5.57;;;2.90;;
39346;SDS011;26262;49.836;6.632;2022-10-12T08:38:07;11.00;;;4.15;;
39346;SDS011;26262;49.836;6.632;2022-10-12T08:40:34;6.75;;;3.67;;
39346;SDS011;26262;49.836;6.632;2022-10-12T08:43:05;8.18;;;3.58;;
39346;SDS011;26262;49.836;6.632;2022-10-12T08:45:45;5.13;;;2.47;;
39346;SDS011;26262;49.836;6.632;2022-10-12T08:48:25;5.95;;;2.50;;
39346;SDS011;26262;49.836;6.632;2022-10-12T08:50:58;11.52;;;2.80;;
39346;SDS011;26262;49.836;6.632;2022-10-12T08:53:31;7.13;;;2.85;;
39346;SDS011;26262;49.836;6.632;2022-10-12T08:56:08;7.65;;;3.05;;
39346;SDS011;26262;49.836;6.632;2022-10-12T08:58:34;5.72;;;3.90;;
39346;SDS011;26262;49.836;6.632;2022-10-12T09:01:13;5.22;;;3.25;;
39346;SDS011;26262;49.836;6.632;2022-10-12T09:03:59;7.03;;;3.38;;
39346;SDS011;26262;49.836;6.632;2022-10-12T09:06:39;7.50;;;3.50;;
39346;SDS011;26262;49.836;6.632;2022-10-12T09:14:33;4.82;;;2.80;;
39346;SDS011;26262;49.836;6.632;2022-10-12T09:17:01;8.15;;;3.70;;
39346;SDS011;26262;49.836;6.632;2022-10-12T09:19:36;5.03;;;3.08;;
39346;SDS011;26262;49.836;6.632;2022-10-12T09:22:05;5.88;;;2.90;;
39346;SDS011;26262;49.836;6.632;2022-10-12T09:24:41;7.65;;;3.35;;
39346;SDS011;26262;49.836;6.632;2022-10-12T09:27:12;5.45;;;2.65;;
39346;SDS011;26262;49.836;6.632;2022-10-12T09:29:39;6.03;;;2.90;;
39346;SDS011;26262;49.836;6.632;2022-10-12T09:35:01;5.43;;;2.25;;
39346;SDS011;26262;49.836;6.632;2022-10-12T09:37:29;7.97;;;3.72;;
39346;SDS011;26262;49.836;6.632;2022-10-12T09:39:56;5.95;;;2.63;;
39346;SDS011;26262;49.836;6.632;2022-10-12T09:42:22;7.63;;;2.78;;
39346;SDS011;26262;49.836;6.632;2022-10-12T09:44:48;6.15;;;2.40;;
39346;SDS011;26262;49.836;6.632;2022-10-12T09:47:33;8.20;;;3.10;;
39346;SDS011;26262;49.836;6.632;2022-10-12T09:49:59;9.38;;;2.55;;
39346;SDS011;26262;49.836;6.632;2022-10-12T09:57:39;22.38;;;6.30;;
39346;SDS011;26262;49.836;6.632;2022-10-12T10:00:27;7.10;;;3.50;;
39346;SDS011;26262;49.836;6.632;2022-10-12T10:02:55;12.88;;;4.07;;
39346;SDS011;26262;49.836;6.632;2022-10-12T10:05:31;5.97;;;2.40;;
39346;SDS011;26262;49.836;6.632;2022-10-12T10:13:14;4.53;;;2.17;;
39346;SDS011;26262;49.836;6.632;2022-10-12T10:15:40;5.28;;;2.28;;
39346;SDS011;26262;49.836;6.632;2022-10-12T10:18:19;4.88;;;2.20;;
39346;SDS011;26262;49.836;6.632;2022-10-12T10:20:49;5.22;;;2.35;;
39346;SDS011;26262;49.836;6.632;2022-10-12T10:23:27;3.53;;;2.13;;
39346;SDS011;26262;49.836;6.632;2022-10-12T10:28:38;6.28;;;2.08;;
39346;SDS011;26262;49.836;6.632;2022-10-12T10:33:45;6.72;;;2.30;;
39346;SDS011;26262;49.836;6.632;2022-10-12T10:36:39;7.45;;;2.05;;
39346;SDS011;26262;49.836;6.632;2022-10-12T10:39:15;6.35;;;2.55;;
39346;SDS011;26262;49.836;6.632;2022-10-12T10:41:41;3.83;;;2.00;;
39346;SDS011;26262;49.836;6.632;2022-10-12T10:44:19;3.92;;;2.05;;
39346;SDS011;26262;49.836;6.632;2022-10-12T10:46:53;6.78;;;4.40;;
39346;SDS011;26262;49.836;6.632;2022-10-12T10:49:29;9.48;;;5.30;;
39346;SDS011;26262;49.836;6.632;2022-10-12T10:52:03;11.13;;;6.35;;
39346;SDS011;26262;49.836;6.632;2022-10-12T10:54:32;12.77;;;7.70;;
39346;SDS011;26262;49.836;6.632;2022-10-12T10:59:48;15.20;;;9.63;;
39346;SDS011;26262;49.836;6.632;2022-10-12T11:02:23;14.65;;;10.25;;
39346;SDS011;26262;49.836;6.632;2022-10-12T11:05:14;13.52;;;8.90;;
39346;SDS011;26262;49.836;6.632;2022-10-12T11:07:58;15.65;;;10.45;;
39346;SDS011;26262;49.836;6.632;2022-10-12T11:10:41;16.35;;;10.10;;
39346;SDS011;26262;49.836;6.632;2022-10-12T11:15:45;12.15;;;8.38;;
39346;SDS011;26262;49.836;6.632;2022-10-12T11:18:17;14.48;;;10.02;;
39346;SDS011;26262;49.836;6.632;2022-10-12T11:20:49;17.83;;;11.43;;
39346;SDS011;26262;49.836;6.632;2022-10-12T11:26:25;18.27;;;10.18;;
39346;SDS011;26262;49.836;6.632;2022-10-12T11:28:57;15.20;;;10.20;;
39346;SDS011;26262;49.836;6.632;2022-10-12T11:31:37;15.02;;;9.75;;
39346;SDS011;26262;49.836;6.632;2022-10-12T11:34:07;18.05;;;10.90;;
39346;SDS011;26262;49.836;6.632;2022-10-12T11:36:38;17.20;;;12.32;;
39346;SDS011;26262;49.836;6.632;2022-10-12T11:39:12;18.85;;;12.20;;
39346;SDS011;26262;49.836;6.632;2022-10-12T11:41:43;17.90;;;11.90;;
39346;SDS011;26262;49.836;6.632;2022-10-12T11:44:17;18.10;;;11.02;;
39346;SDS011;26262;49.836;6.632;2022-10-12T11:47:13;16.65;;;11.80;;
39346;SDS011;26262;49.836;6.632;2022-10-12T11:52:45;13.13;;;9.73;;
39346;SDS011;26262;49.836;6.632;2022-10-12T11:57:44;20.13;;;10.90;;
39346;SDS011;26262;49.836;6.632;2022-10-12T12:00:30;14.97;;;10.57;;
39346;SDS011;26262;49.836;6.632;2022-10-12T12:03:07;16.25;;;11.38;;
39346;SDS011;26262;49.836;6.632;2022-10-12T12:09:17;15.40;;;10.15;;
39346;SDS011;26262;49.836;6.632;2022-10-12T12:19:44;15.90;;;11.35;;
39346;SDS011;26262;49.836;6.632;2022-10-12T12:24:49;18.25;;;11.25;;
39346;SDS011;26262;49.836;6.632;2022-10-12T12:27:39;18.30;;;10.52;;
39346;SDS011;26262;49.836;6.632;2022-10-12T12:32:40;16.42;;;12.23;;
39346;SDS011;26262;49.836;6.632;2022-10-12T12:35:23;14.77;;;10.40;;
39346;SDS011;26262;49.836;6.632;2022-10-12T12:40:35;20.15;;;11.65;;
39346;SDS011;26262;49.836;6.632;2022-10-12T12:43:18;15.93;;;10.93;;
39346;SDS011;26262;49.836;6.632;2022-10-12T12:51:02;19.30;;;11.50;;
39346;SDS011;26262;49.836;6.632;2022-10-12T12:53:34;21.52;;;10.93;;
39346;SDS011;26262;49.836;6.632;2022-10-12T12:56:06;21.73;;;12.02;;
39346;SDS011;26262;49.836;6.632;2022-10-12T13:15:24;16.92;;;11.82;;
39346;SDS011;26262;49.836;6.632;2022-10-12T13:20:38;20.23;;;13.52;;
39346;SDS011;26262;49.836;6.632;2022-10-12T13:23:05;17.98;;;11.95;;
39346;SDS011;26262;49.836;6.632;2022-10-12T13:28:31;21.90;;;11.95;;
39346;SDS011;26262;49.836;6.632;2022-10-12T13:33:39;15.35;;;11.20;;
39346;SDS011;26262;49.836;6.632;2022-10-12T13:36:23;19.13;;;11.48;;
39346;SDS011;26262;49.836;6.632;2022-10-12T13:38:53;18.17;;;12.25;;
39346;SDS011;26262;49.836;6.632;2022-10-12T13:41:20;13.50;;;9.77;;
39346;SDS011;26262;49.836;6.632;2022-10-12T13:49:11;17.25;;;10.43;;
39346;SDS011;26262;49.836;6.632;2022-10-12T13:51:39;15.18;;;10.63;;
39346;SDS011;26262;49.836;6.632;2022-10-12T13:54:25;16.05;;;10.73;;
39346;SDS011;26262;49.836;6.632;2022-10-12T13:57:00;18.73;;;10.07;;
39346;SDS011;26262;49.836;6.632;2022-10-12T13:59:31;16.65;;;9.68;;
39346;SDS011;26262;49.836;6.632;2022-10-12T14:02:00;14.90;;;9.48;;
39346;SDS011;26262;49.836;6.632;2022-10-12T14:04:31;16.38;;;9.77;;
39346;SDS011;26262;49.836;6.632;2022-10-12T14:07:10;14.85;;;9.02;;
39346;SDS011;26262;49.836;6.632;2022-10-12T14:09:44;16.23;;;9.95;;
39346;SDS011;26262;49.836;6.632;2022-10-12T14:12:12;21.63;;;11.43;;
39346;SDS011;26262;49.836;6.632;2022-10-12T14:14:40;14.48;;;9.82;;
39346;SDS011;26262;49.836;6.632;2022-10-12T14:17:15;13.32;;;9.95;;
39346;SDS011;26262;49.836;6.632;2022-10-12T14:22:30;15.07;;;9.70;;
39346;SDS011;26262;49.836;6.632;2022-10-12T14:27:43;15.68;;;10.32;;
39346;SDS011;26262;49.836;6.632;2022-10-12T14:30:16;17.67;;;9.50;;
39346;SDS011;26262;49.836;6.632;2022-10-12T14:32:49;17.52;;;9.95;;
39346;SDS011;26262;49.836;6.632;2022-10-12T14:37:42;14.63;;;9.50;;
39346;SDS011;26262;49.836;6.632;2022-10-12T14:42:59;14.25;;;9.30;;
39346;SDS011;26262;49.836;6.632;2022-10-12T14:45:29;15.57;;;8.63;;
39346;SDS011;26262;49.836;6.632;2022-10-12T14:47:56;12.95;;;8.93;;
39346;SDS011;26262;49.836;6.632;2022-10-12T14:50:23;12.63;;;8.60;;
39346;SDS011;26262;49.836;6.632;2022-10-12T14:52:50;16.45;;;9.82;;
39346;SDS011;26262;49.836;6.632;2022-10-12T14:55:20;12.10;;;8.00;;
39346;SDS011;26262;49.836;6.632;2022-10-12T14:57:50;13.07;;;8.73;;
39346;SDS011;26262;49.836;6.632;2022-10-12T15:00:16;16.15;;;10.05;;
39346;SDS011;26262;49.836;6.632;2022-10-12T15:02:44;14.63;;;9.13;;
39346;SDS011;26262;49.836;6.632;2022-10-12T15:05:10;12.95;;;8.85;;
39346;SDS011;26262;49.836;6.632;2022-10-12T15:07:37;11.93;;;6.90;;
39346;SDS011;26262;49.836;6.632;2022-10-12T15:10:03;13.60;;;7.00;;
39346;SDS011;26262;49.836;6.632;2022-10-12T15:12:29;11.57;;;6.53;;
39346;SDS011;26262;49.836;6.632;2022-10-12T15:14:55;9.57;;;6.10;;
39346;SDS011;26262;49.836;6.632;2022-10-12T15:17:23;8.50;;;6.22;;
39346;SDS011;26262;49.836;6.632;2022-10-12T15:19:49;12.52;;;6.72;;
39346;SDS011;26262;49.836;6.632;2022-10-12T15:22:17;12.50;;;6.68;;
39346;SDS011;26262;49.836;6.632;2022-10-12T15:24:48;15.55;;;7.13;;
39346;SDS011;26262;49.836;6.632;2022-10-12T15:27:14;8.52;;;5.72;;
39346;SDS011;26262;49.836;6.632;2022-10-12T15:29:40;11.68;;;6.10;;
39346;SDS011;26262;49.836;6.632;2022-10-12T15:32:06;14.98;;;7.53;;
39346;SDS011;26262;49.836;6.632;2022-10-12T15:34:33;14.30;;;7.20;;
39346;SDS011;26262;49.836;6.632;2022-10-12T15:36:59;10.65;;;6.13;;
39346;SDS011;26262;49.836;6.632;2022-10-12T15:39:25;11.70;;;6.03;;
39346;SDS011;26262;49.836;6.632;2022-10-12T15:41:50;9.63;;;6.20;;
39346;SDS011;26262;49.836;6.632;2022-10-12T15:44:16;13.40;;;6.80;;
39346;SDS011;26262;49.836;6.632;2022-10-12T15:46:42;12.13;;;7.25;;
39346;SDS011;26262;49.836;6.632;2022-10-12T15:49:08;13.98;;;8.25;;
39346;SDS011;26262;49.836;6.632;2022-10-12T15:51:37;11.38;;;7.43;;
39346;SDS011;26262;49.836;6.632;2022-10-12T15:54:05;10.30;;;6.75;;
39346;SDS011;26262;49.836;6.632;2022-10-12T15:56:31;9.63;;;5.78;;
39346;SDS011;26262;49.836;6.632;2022-10-12T15:58:57;22.38;;;9.95;;
39346;SDS011;26262;49.836;6.632;2022-10-12T16:01:22;12.80;;;7.55;;
39346;SDS011;26262;49.836;6.632;2022-10-12T16:03:48;9.18;;;6.53;;
39346;SDS011;26262;49.836;6.632;2022-10-12T16:06:14;12.80;;;7.78;;
39346;SDS011;26262;49.836;6.632;2022-10-12T16:08:39;10.60;;;6.13;;
39346;SDS011;26262;49.836;6.632;2022-10-12T16:11:06;12.27;;;7.10;;
39346;SDS011;26262;49.836;6.632;2022-10-12T16:13:33;12.48;;;6.18;;
39346;SDS011;26262;49.836;6.632;2022-10-12T16:15:59;16.40;;;9.50;;
39346;SDS011;26262;49.836;6.632;2022-10-12T16:18:24;15.75;;;10.85;;
39346;SDS011;26262;49.836;6.632;2022-10-12T16:20:50;14.95;;;7.93;;
39346;SDS011;26262;49.836;6.632;2022-10-12T16:23:29;11.00;;;6.82;;
39346;SDS011;26262;49.836;6.632;2022-10-12T16:25:57;12.50;;;7.80;;
39346;SDS011;26262;49.836;6.632;2022-10-12T16:28:23;14.57;;;8.43;;
39346;SDS011;26262;49.836;6.632;2022-10-12T16:30:50;9.80;;;7.00;;
39346;SDS011;26262;49.836;6.632;2022-10-12T16:33:16;8.75;;;6.63;;
39346;SDS011;26262;49.836;6.632;2022-10-12T16:35:42;15.70;;;8.02;;
39346;SDS011;26262;49.836;6.632;2022-10-12T16:38:09;14.00;;;8.30;;
39346;SDS011;26262;49.836;6.632;2022-10-12T16:40:38;11.00;;;6.78;;
39346;SDS011;26262;49.836;6.632;2022-10-12T16:43:04;11.02;;;7.43;;
39346;SDS011;26262;49.836;6.632;2022-10-12T16:45:30;12.52;;;7.30;;
39346;SDS011;26262;49.836;6.632;2022-10-12T16:47:55;10.40;;;6.75;;
39346;SDS011;26262;49.836;6.632;2022-10-12T16:50:21;9.88;;;6.47;;
39346;SDS011;26262;49.836;6.632;2022-10-12T16:52:48;10.80;;;7.55;;
39346;SDS011;26262;49.836;6.632;2022-10-12T16:55:13;15.60;;;8.40;;
39346;SDS011;26262;49.836;6.632;2022-10-12T16:57:40;11.80;;;7.95;;
39346;SDS011;26262;49.836;6.632;2022-10-12T17:00:07;10.90;;;7.93;;
39346;SDS011;26262;49.836;6.632;2022-10-12T17:02:35;15.55;;;11.32;;
39346;SDS011;26262;49.836;6.632;2022-10-12T17:05:01;17.60;;;12.30;;
39346;SDS011;26262;49.836;6.632;2022-10-12T17:07:27;14.98;;;9.85;;
39346;SDS011;26262;49.836;6.632;2022-10-12T17:09:52;15.48;;;9.20;;